sensor_id;sensor_type;location;lat;lon;timestamp;temperature;humidity
2010;DHT22;1008;47.404;8.502;2024-01-06T00:01:29;7.40;99.90
2010;DHT22;1008;47.404;8.502;2024-01-06T00:03:57;7.40;99.90
2010;DHT22;1008;47.404;8.502;2024-01-06T00:06:24;7.40;99.90
2010;DHT22;1008;47.404;8.502;2024-01-06T00:08:51;7.20;99.90
2010;DHT22;1008;47.404;8.502;2024-01-06T00:11:19;7.10;99.90
2010;DHT22;1008;47.404;8.502;2024-01-06T00:13:46;7.20;99.90
2010;DHT22;1008;47.404;8.502;2024-01-06T00:16:13;7.20;99.90
2010;DHT22;1008;47.404;8.502;2024-01-06T00:18:39;7.40;99.90
2010;DHT22;1008;47.404;8.502;2024-01-06T00:21:08;7.50;99.90
2010;DHT22;1008;47.404;8.502;2024-01-06T00:23:35;7.50;99.90
2010;DHT22;1008;47.404;8.502;2024-01-06T00:26:03;7.50;99.90
2010;DHT22;1008;47.404;8.502;2024-01-06T00:28:29;7.50;99.90
2010;DHT22;1008;47.404;8.502;2024-01-06T00:30:56;7.40;99.90
2010;DHT22;1008;47.404;8.502;2024-01-06T00:33:23;7.60;99.90
2010;DHT22;1008;47.404;8.502;2024-01-06T00:35:50;7.50;99.90
2010;DHT22;1008;47.404;8.502;2024-01-06T00:38:18;7.60;99.90
2010;DHT22;1008;47.404;8.502;2024-01-06T00:40:45;7.30;99.90
2010;DHT22;1008;47.404;8.502;2024-01-06T00:43:12;7.40;99.90
2010;DHT22;1008;47.404;8.502;2024-01-06T00:45:38;7.30;99.90
2010;DHT22;1008;47.404;8.502;2024-01-06T00:48:06;7.50;99.90
2010;DHT22;1008;47.404;8.502;2024-01-06T00:50:34;7.30;99.90
2010;DHT22;1008;47.404;8.502;2024-01-06T00:53:00;7.30;99.90
2010;DHT22;1008;47.404;8.502;2024-01-06T00:55:28;7.30;99.90
2010;DHT22;1008;47.404;8.502;2024-01-06T00:57:55;7.20;99.90
2010;DHT22;1008;47.404;8.502;2024-01-06T01:00:22;7.20;99.90
2010;DHT22;1008;47.404;8.502;2024-01-06T01:02:49;7.10;99.90
2010;DHT22;1008;47.404;8.502;2024-01-06T01:05:15;7.30;99.90
2010;DHT22;1008;47.404;8.502;2024-01-06T01:07:42;7.40;99.90
2010;DHT22;1008;47.404;8.502;2024-01-06T01:10:09;7.50;99.90
2010;DHT22;1008;47.404;8.502;2024-01-06T01:12:37;7.40;99.90
2010;DHT22;1008;47.404;8.502;2024-01-06T01:15:05;7.30;99.90
2010;DHT22;1008;47.404;8.502;2024-01-06T01:17:32;7.40;99.90
2010;DHT22;1008;47.404;8.502;2024-01-06T01:19:59;7.50;99.90
2010;DHT22;1008;47.404;8.502;2024-01-06T01:22:26;7.40;99.90
2010;DHT22;1008;47.404;8.502;2024-01-06T01:24:52;7.20;99.90
2010;DHT22;1008;47.404;8.502;2024-01-06T01:27:19;7.30;99.90
2010;DHT22;1008;47.404;8.502;2024-01-06T01:29:47;7.40;99.90
2010;DHT22;1008;47.404;8.502;2024-01-06T01:32:18;7.50;99.90
2010;DHT22;1008;47.404;8.502;2024-01-06T01:34:44;7.40;99.90
2010;DHT22;1008;47.404;8.502;2024-01-06T01:37:11;7.30;99.90
2010;DHT22;1008;47.404;8.502;2024-01-06T01:39:38;7.10;99.90
2010;DHT22;1008;47.404;8.502;2024-01-06T01:42:05;7.30;99.90
2010;DHT22;1008;47.404;8.502;2024-01-06T01:44:31;7.30;99.90
2010;DHT22;1008;47.404;8.502;2024-01-06T01:46:59;7.30;99.90
2010;DHT22;1008;47.404;8.502;2024-01-06T01:49:26;7.30;99.90
2010;DHT22;1008;47.404;8.502;2024-01-06T01:51:54;7.10;99.90
2010;DHT22;1008;47.404;8.502;2024-01-06T01:54:21;7.10;99.90
2010;DHT22;1008;47.404;8.502;2024-01-06T01:56:47;7.10;99.90
2010;DHT22;1008;47.404;8.502;2024-01-06T01:59:17;6.90;99.90
2010;DHT22;1008;47.404;8.502;2024-01-06T02:01:44;7.00;99.90
2010;DHT22;1008;47.404;8.502;2024-01-06T02:04:13;7.30;99.90
2010;DHT22;1008;47.404;8.502;2024-01-06T02:06:40;7.10;99.90
2010;DHT22;1008;47.404;8.502;2024-01-06T02:09:07;7.00;99.90
2010;DHT22;1008;47.404;8.502;2024-01-06T02:11:34;7.20;99.90
2010;DHT22;1008;47.404;8.502;2024-01-06T02:14:01;7.30;99.90
2010;DHT22;1008;47.404;8.502;2024-01-06T02:16:28;7.10;99.90
2010;DHT22;1008;47.404;8.502;2024-01-06T02:18:54;7.10;99.90
2010;DHT22;1008;47.404;8.502;2024-01-06T02:21:27;7.00;99.90
2010;DHT22;1008;47.404;8.502;2024-01-06T02:23:56;6.80;99.90
2010;DHT22;1008;47.404;8.502;2024-01-06T02:26:22;6.70;99.90
2010;DHT22;1008;47.404;8.502;2024-01-06T02:28:49;6.80;99.90
2010;DHT22;1008;47.404;8.502;2024-01-06T02:31:16;6.80;99.90
2010;DHT22;1008;47.404;8.502;2024-01-06T02:33:42;6.80;99.90
2010;DHT22;1008;47.404;8.502;2024-01-06T02:36:09;6.90;99.90
2010;DHT22;1008;47.404;8.502;2024-01-06T02:38:36;6.90;99.90
2010;DHT22;1008;47.404;8.502;2024-01-06T02:41:04;6.90;99.90
2010;DHT22;1008;47.404;8.502;2024-01-06T02:43:30;6.90;99.90
2010;DHT22;1008;47.404;8.502;2024-01-06T02:45:57;6.90;99.90
2010;DHT22;1008;47.404;8.502;2024-01-06T02:48:24;6.90;99.90
2010;DHT22;1008;47.404;8.502;2024-01-06T02:50:51;6.90;99.90
2010;DHT22;1008;47.404;8.502;2024-01-06T02:53:17;7.00;99.90
2010;DHT22;1008;47.404;8.502;2024-01-06T02:55:44;6.80;99.90
2010;DHT22;1008;47.404;8.502;2024-01-06T02:58:12;7.00;99.90
2010;DHT22;1008;47.404;8.502;2024-01-06T03:00:39;7.00;99.90
2010;DHT22;1008;47.404;8.502;2024-01-06T03:03:05;7.00;99.90
2010;DHT22;1008;47.404;8.502;2024-01-06T03:05:32;6.90;99.90
2010;DHT22;1008;47.404;8.502;2024-01-06T03:07:59;6.90;99.90
2010;DHT22;1008;47.404;8.502;2024-01-06T03:10:26;7.00;99.90
2010;DHT22;1008;47.404;8.502;2024-01-06T03:12:53;7.00;99.90
2010;DHT22;1008;47.404;8.502;2024-01-06T03:15:21;7.00;99.90
2010;DHT22;1008;47.404;8.502;2024-01-06T03:17:48;6.80;99.90
2010;DHT22;1008;47.404;8.502;2024-01-06T03:20:14;6.80;99.90
2010;DHT22;1008;47.404;8.502;2024-01-06T03:22:41;6.80;99.90
2010;DHT22;1008;47.404;8.502;2024-01-06T03:25:08;6.60;99.90
2010;DHT22;1008;47.404;8.502;2024-01-06T03:27:35;6.60;99.90
2010;DHT22;1008;47.404;8.502;2024-01-06T03:30:02;6.60;99.90
2010;DHT22;1008;47.404;8.502;2024-01-06T03:32:30;6.50;99.90
2010;DHT22;1008;47.404;8.502;2024-01-06T03:34:57;6.50;99.90
2010;DHT22;1008;47.404;8.502;2024-01-06T03:37:24;6.40;99.90
2010;DHT22;1008;47.404;8.502;2024-01-06T03:39:50;6.40;99.90
2010;DHT22;1008;47.404;8.502;2024-01-06T03:42:17;6.40;99.90
2010;DHT22;1008;47.404;8.502;2024-01-06T03:44:44;6.30;99.90
2010;DHT22;1008;47.404;8.502;2024-01-06T03:47:11;6.30;99.90
2010;DHT22;1008;47.404;8.502;2024-01-06T03:49:39;6.30;99.90
2010;DHT22;1008;47.404;8.502;2024-01-06T03:52:05;6.30;99.90
2010;DHT22;1008;47.404;8.502;2024-01-06T03:54:32;6.30;99.90
2010;DHT22;1008;47.404;8.502;2024-01-06T03:56:59;6.30;99.90
2010;DHT22;1008;47.404;8.502;2024-01-06T03:59:25;6.10;99.90
2010;DHT22;1008;47.404;8.502;2024-01-06T04:01:52;6.10;99.90
2010;DHT22;1008;47.404;8.502;2024-01-06T04:04:19;6.10;99.90
2010;DHT22;1008;47.404;8.502;2024-01-06T04:06:47;6.10;99.90
2010;DHT22;1008;47.404;8.502;2024-01-06T04:09:14;5.90;99.90
2010;DHT22;1008;47.404;8.502;2024-01-06T04:11:41;6.00;99.90
2010;DHT22;1008;47.404;8.502;2024-01-06T04:14:08;6.10;99.90
2010;DHT22;1008;47.404;8.502;2024-01-06T04:16:34;6.30;99.90
2010;DHT22;1008;47.404;8.502;2024-01-06T04:19:01;6.40;99.90
2010;DHT22;1008;47.404;8.502;2024-01-06T04:21:28;6.30;99.90
2010;DHT22;1008;47.404;8.502;2024-01-06T04:23:56;6.30;99.90
2010;DHT22;1008;47.404;8.502;2024-01-06T04:26:23;6.20;99.90
2010;DHT22;1008;47.404;8.502;2024-01-06T04:28:49;6.10;99.90
2010;DHT22;1008;47.404;8.502;2024-01-06T04:31:16;6.10;99.90
2010;DHT22;1008;47.404;8.502;2024-01-06T04:33:43;6.30;99.90
2010;DHT22;1008;47.404;8.502;2024-01-06T04:36:09;6.30;99.90
2010;DHT22;1008;47.404;8.502;2024-01-06T04:38:36;6.40;99.90
2010;DHT22;1008;47.404;8.502;2024-01-06T04:41:04;6.40;99.90
2010;DHT22;1008;47.404;8.502;2024-01-06T04:43:31;6.40;99.90
2010;DHT22;1008;47.404;8.502;2024-01-06T04:45:57;6.30;99.90
2010;DHT22;1008;47.404;8.502;2024-01-06T04:48:24;6.20;99.90
2010;DHT22;1008;47.404;8.502;2024-01-06T04:50:51;6.10;99.90
2010;DHT22;1008;47.404;8.502;2024-01-06T04:53:18;5.90;99.90
2010;DHT22;1008;47.404;8.502;2024-01-06T04:55:44;6.00;99.90
2010;DHT22;1008;47.404;8.502;2024-01-06T04:58:12;6.00;99.90
2010;DHT22;1008;47.404;8.502;2024-01-06T05:00:39;5.90;99.90
2010;DHT22;1008;47.404;8.502;2024-01-06T05:03:06;5.90;99.90
2010;DHT22;1008;47.404;8.502;2024-01-06T05:05:32;5.90;99.90
2010;DHT22;1008;47.404;8.502;2024-01-06T05:07:59;6.00;99.90
2010;DHT22;1008;47.404;8.502;2024-01-06T05:10:26;6.00;99.90
2010;DHT22;1008;47.404;8.502;2024-01-06T05:12:53;5.80;99.90
2010;DHT22;1008;47.404;8.502;2024-01-06T05:15:21;5.90;99.90
2010;DHT22;1008;47.404;8.502;2024-01-06T05:17:48;5.80;99.90
2010;DHT22;1008;47.404;8.502;2024-01-06T05:20:14;6.00;99.90
2010;DHT22;1008;47.404;8.502;2024-01-06T05:22:41;6.20;99.90
2010;DHT22;1008;47.404;8.502;2024-01-06T05:25:08;6.30;99.90
2010;DHT22;1008;47.404;8.502;2024-01-06T05:27:35;6.20;99.90
2010;DHT22;1008;47.404;8.502;2024-01-06T05:30:02;6.20;99.90
2010;DHT22;1008;47.404;8.502;2024-01-06T05:32:30;6.10;99.90
2010;DHT22;1008;47.404;8.502;2024-01-06T05:34:57;6.20;99.90
2010;DHT22;1008;47.404;8.502;2024-01-06T05:37:23;6.10;99.90
2010;DHT22;1008;47.404;8.502;2024-01-06T05:39:50;6.10;99.90
2010;DHT22;1008;47.404;8.502;2024-01-06T05:42:17;6.00;99.90
2010;DHT22;1008;47.404;8.502;2024-01-06T05:44:44;5.90;99.90
2010;DHT22;1008;47.404;8.502;2024-01-06T05:47:10;5.90;99.90
2010;DHT22;1008;47.404;8.502;2024-01-06T05:49:42;5.90;99.90
2010;DHT22;1008;47.404;8.502;2024-01-06T05:52:09;5.80;99.90
2010;DHT22;1008;47.404;8.502;2024-01-06T05:54:36;6.10;99.90
2010;DHT22;1008;47.404;8.502;2024-01-06T05:57:06;5.90;99.90
2010;DHT22;1008;47.404;8.502;2024-01-06T05:59:33;5.80;99.90
2010;DHT22;1008;47.404;8.502;2024-01-06T06:01:59;5.70;99.90
2010;DHT22;1008;47.404;8.502;2024-01-06T06:04:26;5.50;99.90
2010;DHT22;1008;47.404;8.502;2024-01-06T06:06:54;5.30;99.90
2010;DHT22;1008;47.404;8.502;2024-01-06T06:09:21;5.40;99.90
2010;DHT22;1008;47.404;8.502;2024-01-06T06:11:48;5.40;99.90
2010;DHT22;1008;47.404;8.502;2024-01-06T06:14:14;5.50;99.90
2010;DHT22;1008;47.404;8.502;2024-01-06T06:16:41;5.40;99.90
2010;DHT22;1008;47.404;8.502;2024-01-06T06:19:08;5.20;99.90
2010;DHT22;1008;47.404;8.502;2024-01-06T06:21:35;5.30;99.90
2010;DHT22;1008;47.404;8.502;2024-01-06T06:24:03;5.50;99.90
2010;DHT22;1008;47.404;8.502;2024-01-06T06:26:30;5.50;99.90
2010;DHT22;1008;47.404;8.502;2024-01-06T06:28:58;5.50;99.90
2010;DHT22;1008;47.404;8.502;2024-01-06T06:31:24;5.40;99.90
2010;DHT22;1008;47.404;8.502;2024-01-06T06:33:51;5.40;99.90
2010;DHT22;1008;47.404;8.502;2024-01-06T06:36:18;5.30;99.90
2010;DHT22;1008;47.404;8.502;2024-01-06T06:38:45;5.30;99.90
2010;DHT22;1008;47.404;8.502;2024-01-06T06:41:13;5.30;99.90
2010;DHT22;1008;47.404;8.502;2024-01-06T06:43:41;5.20;99.90
2010;DHT22;1008;47.404;8.502;2024-01-06T06:46:08;5.30;99.90
2010;DHT22;1008;47.404;8.502;2024-01-06T06:48:35;5.30;99.90
2010;DHT22;1008;47.404;8.502;2024-01-06T06:51:02;5.20;99.90
2010;DHT22;1008;47.404;8.502;2024-01-06T06:53:29;5.20;99.90
2010;DHT22;1008;47.404;8.502;2024-01-06T06:55:55;5.20;99.90
2010;DHT22;1008;47.404;8.502;2024-01-06T06:58:23;5.20;99.90
2010;DHT22;1008;47.404;8.502;2024-01-06T07:00:50;5.30;99.90
2010;DHT22;1008;47.404;8.502;2024-01-06T07:03:17;5.60;99.90
2010;DHT22;1008;47.404;8.502;2024-01-06T07:05:43;5.50;99.90
2010;DHT22;1008;47.404;8.502;2024-01-06T07:08:10;5.30;99.90
2010;DHT22;1008;47.404;8.502;2024-01-06T07:10:39;5.40;99.90
2010;DHT22;1008;47.404;8.502;2024-01-06T07:13:05;5.40;99.90
2010;DHT22;1008;47.404;8.502;2024-01-06T07:15:33;5.40;99.90
2010;DHT22;1008;47.404;8.502;2024-01-06T07:18:00;5.20;99.90
2010;DHT22;1008;47.404;8.502;2024-01-06T07:20:27;5.20;99.90
2010;DHT22;1008;47.404;8.502;2024-01-06T07:22:53;5.20;99.90
2010;DHT22;1008;47.404;8.502;2024-01-06T07:25:20;5.20;99.90
2010;DHT22;1008;47.404;8.502;2024-01-06T07:27:47;5.40;99.90
2010;DHT22;1008;47.404;8.502;2024-01-06T07:30:14;5.30;99.90
2010;DHT22;1008;47.404;8.502;2024-01-06T07:32:43;5.30;99.90
2010;DHT22;1008;47.404;8.502;2024-01-06T07:35:09;5.30;99.90
2010;DHT22;1008;47.404;8.502;2024-01-06T07:37:36;5.30;99.90
2010;DHT22;1008;47.404;8.502;2024-01-06T07:40:03;5.30;99.90
2010;DHT22;1008;47.404;8.502;2024-01-06T07:42:30;5.30;99.90
2010;DHT22;1008;47.404;8.502;2024-01-06T07:44:57;5.10;99.90
2010;DHT22;1008;47.404;8.502;2024-01-06T07:47:24;5.30;99.90
2010;DHT22;1008;47.404;8.502;2024-01-06T07:49:52;5.40;99.90
2010;DHT22;1008;47.404;8.502;2024-01-06T07:52:20;5.40;99.90
2010;DHT22;1008;47.404;8.502;2024-01-06T07:54:46;5.40;99.90
2010;DHT22;1008;47.404;8.502;2024-01-06T07:57:13;5.20;99.90
2010;DHT22;1008;47.404;8.502;2024-01-06T07:59:40;5.30;99.90
2010;DHT22;1008;47.404;8.502;2024-01-06T08:02:07;5.10;99.90
2010;DHT22;1008;47.404;8.502;2024-01-06T08:04:34;5.00;99.90
2010;DHT22;1008;47.404;8.502;2024-01-06T08:07:03;5.10;99.90
2010;DHT22;1008;47.404;8.502;2024-01-06T08:09:29;5.20;99.90
2010;DHT22;1008;47.404;8.502;2024-01-06T08:11:56;5.20;99.90
2010;DHT22;1008;47.404;8.502;2024-01-06T08:14:23;5.20;99.90
2010;DHT22;1008;47.404;8.502;2024-01-06T08:16:49;5.30;99.90
2010;DHT22;1008;47.404;8.502;2024-01-06T08:19:16;5.60;99.90
2010;DHT22;1008;47.404;8.502;2024-01-06T08:21:43;5.20;99.90
2010;DHT22;1008;47.404;8.502;2024-01-06T08:24:11;5.20;99.90
2010;DHT22;1008;47.404;8.502;2024-01-06T08:26:38;5.30;99.90
2010;DHT22;1008;47.404;8.502;2024-01-06T08:29:05;5.20;99.90
2010;DHT22;1008;47.404;8.502;2024-01-06T08:31:31;5.20;99.90
2010;DHT22;1008;47.404;8.502;2024-01-06T08:33:58;5.10;99.90
2010;DHT22;1008;47.404;8.502;2024-01-06T08:36:25;5.10;99.90
2010;DHT22;1008;47.404;8.502;2024-01-06T08:38:52;5.30;99.90
2010;DHT22;1008;47.404;8.502;2024-01-06T08:41:20;5.40;99.90
2010;DHT22;1008;47.404;8.502;2024-01-06T08:43:47;5.30;99.90
2010;DHT22;1008;47.404;8.502;2024-01-06T08:46:14;5.30;99.90
2010;DHT22;1008;47.404;8.502;2024-01-06T08:48:41;5.30;99.90
2010;DHT22;1008;47.404;8.502;2024-01-06T08:51:07;5.50;99.90
2010;DHT22;1008;47.404;8.502;2024-01-06T08:53:34;5.60;99.90
2010;DHT22;1008;47.404;8.502;2024-01-06T08:56:01;5.50;99.90
2010;DHT22;1008;47.404;8.502;2024-01-06T08:58:29;5.30;99.90
2010;DHT22;1008;47.404;8.502;2024-01-06T09:00:56;5.30;99.90
2010;DHT22;1008;47.404;8.502;2024-01-06T09:03:23;5.30;99.90
2010;DHT22;1008;47.404;8.502;2024-01-06T09:05:51;5.30;99.90
2010;DHT22;1008;47.404;8.502;2024-01-06T09:08:18;5.40;99.90
2010;DHT22;1008;47.404;8.502;2024-01-06T09:10:45;5.30;99.90
2010;DHT22;1008;47.404;8.502;2024-01-06T09:13:12;5.30;99.90
2010;DHT22;1008;47.404;8.502;2024-01-06T09:15:40;5.20;99.90
2010;DHT22;1008;47.404;8.502;2024-01-06T09:18:06;5.20;99.90
2010;DHT22;1008;47.404;8.502;2024-01-06T09:20:33;5.30;99.90
2010;DHT22;1008;47.404;8.502;2024-01-06T09:23:00;5.50;99.90
2010;DHT22;1008;47.404;8.502;2024-01-06T09:25:27;5.50;99.90
2010;DHT22;1008;47.404;8.502;2024-01-06T09:27:53;5.50;99.90
2010;DHT22;1008;47.404;8.502;2024-01-06T09:30:20;5.70;99.90
2010;DHT22;1008;47.404;8.502;2024-01-06T09:32:48;5.90;99.90
2010;DHT22;1008;47.404;8.502;2024-01-06T09:35:15;6.00;99.90
2010;DHT22;1008;47.404;8.502;2024-01-06T09:37:42;5.80;99.90
2010;DHT22;1008;47.404;8.502;2024-01-06T09:40:11;5.80;99.90
2010;DHT22;1008;47.404;8.502;2024-01-06T09:42:39;5.90;99.90
2010;DHT22;1008;47.404;8.502;2024-01-06T09:45:07;6.00;99.90
2010;DHT22;1008;47.404;8.502;2024-01-06T09:47:35;5.90;99.90
2010;DHT22;1008;47.404;8.502;2024-01-06T09:50:03;5.90;99.90
2010;DHT22;1008;47.404;8.502;2024-01-06T09:52:39;5.90;99.90
2010;DHT22;1008;47.404;8.502;2024-01-06T09:55:11;5.80;99.90
2010;DHT22;1008;47.404;8.502;2024-01-06T09:57:38;5.80;99.90
2010;DHT22;1008;47.404;8.502;2024-01-06T10:00:06;5.70;99.90
2010;DHT22;1008;47.404;8.502;2024-01-06T10:02:33;5.70;99.90
2010;DHT22;1008;47.404;8.502;2024-01-06T10:05:00;5.60;99.90
2010;DHT22;1008;47.404;8.502;2024-01-06T10:07:29;5.70;99.90
2010;DHT22;1008;47.404;8.502;2024-01-06T10:09:55;5.70;99.90
2010;DHT22;1008;47.404;8.502;2024-01-06T10:12:23;5.50;99.90
2010;DHT22;1008;47.404;8.502;2024-01-06T10:14:50;5.60;99.90
2010;DHT22;1008;47.404;8.502;2024-01-06T10:17:17;5.60;99.90
2010;DHT22;1008;47.404;8.502;2024-01-06T10:19:45;5.60;99.90
2010;DHT22;1008;47.404;8.502;2024-01-06T10:22:13;5.50;99.90
2010;DHT22;1008;47.404;8.502;2024-01-06T10:24:41;5.60;99.90
2010;DHT22;1008;47.404;8.502;2024-01-06T10:27:07;5.60;99.90
2010;DHT22;1008;47.404;8.502;2024-01-06T10:29:35;5.60;99.90
2010;DHT22;1008;47.404;8.502;2024-01-06T10:32:03;5.50;99.90
2010;DHT22;1008;47.404;8.502;2024-01-06T10:34:31;5.70;99.90
2010;DHT22;1008;47.404;8.502;2024-01-06T10:36:58;5.70;99.90
2010;DHT22;1008;47.404;8.502;2024-01-06T10:39:25;5.80;99.90
2010;DHT22;1008;47.404;8.502;2024-01-06T10:41:55;5.90;99.90
2010;DHT22;1008;47.404;8.502;2024-01-06T10:44:23;5.90;99.90
2010;DHT22;1008;47.404;8.502;2024-01-06T10:46:50;5.90;99.90
2010;DHT22;1008;47.404;8.502;2024-01-06T10:49:20;5.90;99.90
2010;DHT22;1008;47.404;8.502;2024-01-06T10:51:48;5.90;99.90
2010;DHT22;1008;47.404;8.502;2024-01-06T10:54:16;5.90;99.90
2010;DHT22;1008;47.404;8.502;2024-01-06T10:56:45;5.90;99.90
2010;DHT22;1008;47.404;8.502;2024-01-06T10:59:15;5.90;99.90
2010;DHT22;1008;47.404;8.502;2024-01-06T11:01:42;5.90;99.90
2010;DHT22;1008;47.404;8.502;2024-01-06T11:04:10;5.90;99.90
2010;DHT22;1008;47.404;8.502;2024-01-06T11:06:37;6.00;99.90
2010;DHT22;1008;47.404;8.502;2024-01-06T11:09:11;5.90;99.90
2010;DHT22;1008;47.404;8.502;2024-01-06T11:11:40;5.80;99.90
2010;DHT22;1008;47.404;8.502;2024-01-06T11:14:22;6.00;99.90
2010;DHT22;1008;47.404;8.502;2024-01-06T11:16:49;6.70;99.90
2010;DHT22;1008;47.404;8.502;2024-01-06T11:19:42;6.90;99.90
2010;DHT22;1008;47.404;8.502;2024-01-06T11:22:24;6.70;99.90
2010;DHT22;1008;47.404;8.502;2024-01-06T11:24:53;6.40;99.90
2010;DHT22;1008;47.404;8.502;2024-01-06T11:27:25;6.50;99.90
2010;DHT22;1008;47.404;8.502;2024-01-06T11:29:55;6.50;99.90
2010;DHT22;1008;47.404;8.502;2024-01-06T11:32:28;6.50;99.90
2010;DHT22;1008;47.404;8.502;2024-01-06T11:34:56;6.50;99.90
2010;DHT22;1008;47.404;8.502;2024-01-06T11:37:35;6.30;99.90
2010;DHT22;1008;47.404;8.502;2024-01-06T11:40:03;6.30;99.90
2010;DHT22;1008;47.404;8.502;2024-01-06T11:42:33;6.20;99.90
2010;DHT22;1008;47.404;8.502;2024-01-06T11:45:06;6.00;99.90
2010;DHT22;1008;47.404;8.502;2024-01-06T11:47:32;5.90;99.90
2010;DHT22;1008;47.404;8.502;2024-01-06T11:50:00;6.00;99.90
2010;DHT22;1008;47.404;8.502;2024-01-06T11:52:30;6.00;99.90
2010;DHT22;1008;47.404;8.502;2024-01-06T11:54:57;6.00;99.90
2010;DHT22;1008;47.404;8.502;2024-01-06T11:57:25;6.30;99.90
2010;DHT22;1008;47.404;8.502;2024-01-06T11:59:52;6.10;99.90
2010;DHT22;1008;47.404;8.502;2024-01-06T12:02:20;6.00;99.90
2010;DHT22;1008;47.404;8.502;2024-01-06T12:04:49;6.20;99.90
2010;DHT22;1008;47.404;8.502;2024-01-06T12:07:17;6.10;99.90
2010;DHT22;1008;47.404;8.502;2024-01-06T12:09:45;6.00;99.90
2010;DHT22;1008;47.404;8.502;2024-01-06T12:12:15;6.00;99.90
2010;DHT22;1008;47.404;8.502;2024-01-06T12:14:42;6.00;99.90
2010;DHT22;1008;47.404;8.502;2024-01-06T12:17:09;5.90;99.90
2010;DHT22;1008;47.404;8.502;2024-01-06T12:19:38;5.90;99.90
2010;DHT22;1008;47.404;8.502;2024-01-06T12:22:05;6.20;99.90
2010;DHT22;1008;47.404;8.502;2024-01-06T12:24:32;5.90;99.90
2010;DHT22;1008;47.404;8.502;2024-01-06T12:26:59;6.00;99.90
2010;DHT22;1008;47.404;8.502;2024-01-06T12:29:26;6.00;99.90
2010;DHT22;1008;47.404;8.502;2024-01-06T12:31:54;6.00;99.90
2010;DHT22;1008;47.404;8.502;2024-01-06T12:34:21;6.00;99.90
2010;DHT22;1008;47.404;8.502;2024-01-06T12:36:52;5.90;99.90
2010;DHT22;1008;47.404;8.502;2024-01-06T12:39:19;5.90;99.90
2010;DHT22;1008;47.404;8.502;2024-01-06T12:41:46;6.10;99.90
2010;DHT22;1008;47.404;8.502;2024-01-06T12:44:13;6.00;99.90
2010;DHT22;1008;47.404;8.502;2024-01-06T12:46:39;6.20;99.90
2010;DHT22;1008;47.404;8.502;2024-01-06T12:49:06;6.30;99.90
2010;DHT22;1008;47.404;8.502;2024-01-06T12:51:33;6.20;99.90
2010;DHT22;1008;47.404;8.502;2024-01-06T12:54:01;6.10;99.90
2010;DHT22;1008;47.404;8.502;2024-01-06T12:56:28;6.00;99.90
2010;DHT22;1008;47.404;8.502;2024-01-06T12:58:55;6.00;99.90
2010;DHT22;1008;47.404;8.502;2024-01-06T13:01:22;6.00;99.90
2010;DHT22;1008;47.404;8.502;2024-01-06T13:03:48;5.80;99.90
2010;DHT22;1008;47.404;8.502;2024-01-06T13:06:15;5.80;99.90
2010;DHT22;1008;47.404;8.502;2024-01-06T13:08:44;5.80;99.90
2010;DHT22;1008;47.404;8.502;2024-01-06T13:11:12;5.80;99.90
2010;DHT22;1008;47.404;8.502;2024-01-06T13:13:39;5.80;99.90
2010;DHT22;1008;47.404;8.502;2024-01-06T13:16:06;5.80;99.90
2010;DHT22;1008;47.404;8.502;2024-01-06T13:18:33;5.80;99.90
2010;DHT22;1008;47.404;8.502;2024-01-06T13:20:59;5.70;99.90
2010;DHT22;1008;47.404;8.502;2024-01-06T13:23:27;5.70;99.90
2010;DHT22;1008;47.404;8.502;2024-01-06T13:25:54;5.80;99.90
2010;DHT22;1008;47.404;8.502;2024-01-06T13:28:24;5.80;99.90
2010;DHT22;1008;47.404;8.502;2024-01-06T13:30:50;5.80;99.90
2010;DHT22;1008;47.404;8.502;2024-01-06T13:33:19;5.70;99.90
2010;DHT22;1008;47.404;8.502;2024-01-06T13:35:45;5.60;99.90
2010;DHT22;1008;47.404;8.502;2024-01-06T13:38:12;5.40;99.90
2010;DHT22;1008;47.404;8.502;2024-01-06T13:40:39;5.40;99.90
2010;DHT22;1008;47.404;8.502;2024-01-06T13:43:06;5.50;99.90
2010;DHT22;1008;47.404;8.502;2024-01-06T13:45:36;5.30;99.90
2010;DHT22;1008;47.404;8.502;2024-01-06T13:48:03;5.40;99.90
2010;DHT22;1008;47.404;8.502;2024-01-06T13:50:29;5.50;99.90
2010;DHT22;1008;47.404;8.502;2024-01-06T13:52:56;5.40;99.90
2010;DHT22;1008;47.404;8.502;2024-01-06T13:55:23;5.40;99.90
2010;DHT22;1008;47.404;8.502;2024-01-06T13:57:50;5.50;99.90
2010;DHT22;1008;47.404;8.502;2024-01-06T14:00:17;5.50;99.90
2010;DHT22;1008;47.404;8.502;2024-01-06T14:02:47;5.50;99.90
2010;DHT22;1008;47.404;8.502;2024-01-06T14:05:14;5.30;99.90
2010;DHT22;1008;47.404;8.502;2024-01-06T14:07:40;5.40;99.90
2010;DHT22;1008;47.404;8.502;2024-01-06T14:10:11;5.50;99.90
2010;DHT22;1008;47.404;8.502;2024-01-06T14:12:37;5.70;99.90
2010;DHT22;1008;47.404;8.502;2024-01-06T14:15:06;5.60;99.90
2010;DHT22;1008;47.404;8.502;2024-01-06T14:17:34;5.60;99.90
2010;DHT22;1008;47.404;8.502;2024-01-06T14:20:02;5.50;99.90
2010;DHT22;1008;47.404;8.502;2024-01-06T14:22:30;5.70;99.90
2010;DHT22;1008;47.404;8.502;2024-01-06T14:24:56;5.80;99.90
2010;DHT22;1008;47.404;8.502;2024-01-06T14:27:23;5.90;99.90
2010;DHT22;1008;47.404;8.502;2024-01-06T14:29:51;5.80;99.90
2010;DHT22;1008;47.404;8.502;2024-01-06T14:32:21;5.80;99.90
2010;DHT22;1008;47.404;8.502;2024-01-06T14:34:48;5.70;99.90
2010;DHT22;1008;47.404;8.502;2024-01-06T14:37:17;5.60;99.90
2010;DHT22;1008;47.404;8.502;2024-01-06T14:39:43;5.50;99.90
2010;DHT22;1008;47.404;8.502;2024-01-06T14:42:11;5.30;99.90
2010;DHT22;1008;47.404;8.502;2024-01-06T14:44:37;5.40;99.90
2010;DHT22;1008;47.404;8.502;2024-01-06T14:47:05;5.50;99.90
2010;DHT22;1008;47.404;8.502;2024-01-06T14:49:32;5.50;99.90
2010;DHT22;1008;47.404;8.502;2024-01-06T14:51:58;5.50;99.90
2010;DHT22;1008;47.404;8.502;2024-01-06T14:54:28;5.60;99.90
2010;DHT22;1008;47.404;8.502;2024-01-06T14:56:56;5.50;99.90
2010;DHT22;1008;47.404;8.502;2024-01-06T14:59:23;5.60;99.90
2010;DHT22;1008;47.404;8.502;2024-01-06T15:01:50;5.60;99.90
2010;DHT22;1008;47.404;8.502;2024-01-06T15:04:16;5.50;99.90
2010;DHT22;1008;47.404;8.502;2024-01-06T15:06:44;5.40;99.90
2010;DHT22;1008;47.404;8.502;2024-01-06T15:09:11;5.40;99.90
2010;DHT22;1008;47.404;8.502;2024-01-06T15:11:39;5.50;99.90
2010;DHT22;1008;47.404;8.502;2024-01-06T15:14:06;5.60;99.90
2010;DHT22;1008;47.404;8.502;2024-01-06T15:16:34;5.60;99.90
2010;DHT22;1008;47.404;8.502;2024-01-06T15:19:02;5.70;99.90
2010;DHT22;1008;47.404;8.502;2024-01-06T15:21:29;5.70;99.90
2010;DHT22;1008;47.404;8.502;2024-01-06T15:23:58;5.80;99.90
2010;DHT22;1008;47.404;8.502;2024-01-06T15:26:26;5.70;99.90
2010;DHT22;1008;47.404;8.502;2024-01-06T15:28:54;5.50;99.90
2010;DHT22;1008;47.404;8.502;2024-01-06T15:31:23;5.40;99.90
2010;DHT22;1008;47.404;8.502;2024-01-06T15:33:50;5.40;99.90
2010;DHT22;1008;47.404;8.502;2024-01-06T15:36:17;5.30;99.90
2010;DHT22;1008;47.404;8.502;2024-01-06T15:38:44;5.40;99.90
2010;DHT22;1008;47.404;8.502;2024-01-06T15:41:10;5.40;99.90
2010;DHT22;1008;47.404;8.502;2024-01-06T15:43:37;5.30;99.90
2010;DHT22;1008;47.404;8.502;2024-01-06T15:46:05;5.40;99.90
2010;DHT22;1008;47.404;8.502;2024-01-06T15:48:32;5.30;99.90
2010;DHT22;1008;47.404;8.502;2024-01-06T15:50:59;5.30;99.90
2010;DHT22;1008;47.404;8.502;2024-01-06T15:53:26;5.30;99.90
2010;DHT22;1008;47.404;8.502;2024-01-06T15:55:52;5.30;99.90
2010;DHT22;1008;47.404;8.502;2024-01-06T15:58:19;5.30;99.90
2010;DHT22;1008;47.404;8.502;2024-01-06T16:00:46;5.20;99.90
2010;DHT22;1008;47.404;8.502;2024-01-06T16:03:14;5.20;99.90
2010;DHT22;1008;47.404;8.502;2024-01-06T16:05:41;5.40;99.90
2010;DHT22;1008;47.404;8.502;2024-01-06T16:08:07;5.40;99.90
2010;DHT22;1008;47.404;8.502;2024-01-06T16:10:34;5.40;99.90
2010;DHT22;1008;47.404;8.502;2024-01-06T16:13:02;5.40;99.90
2010;DHT22;1008;47.404;8.502;2024-01-06T16:15:28;5.70;99.90
2010;DHT22;1008;47.404;8.502;2024-01-06T16:17:55;5.20;99.90